createdAt,value
2023-11-15T00:00:41.689Z,9.87
2023-11-15T00:03:09.737Z,9.81
2023-11-15T00:05:39.206Z,9.92
2023-11-15T00:08:07.219Z,9.83
2023-11-15T00:10:35.202Z,9.82
2023-11-15T00:13:03.764Z,9.77
2023-11-15T00:15:32.178Z,9.81
2023-11-15T00:18:05.397Z,9.74
2023-11-15T00:20:34.784Z,9.76
2023-11-15T00:23:04.886Z,9.73
2023-11-15T00:25:33.962Z,9.80
2023-11-15T00:28:02.534Z,9.79
2023-11-15T00:30:30.475Z,9.86
2023-11-15T00:32:58.600Z,9.95
2023-11-15T00:35:27.240Z,9.88
2023-11-15T00:37:55.649Z,9.95
2023-11-15T00:40:25.150Z,9.83
2023-11-15T00:42:55.205Z,9.83
2023-11-15T00:45:25.661Z,9.92
2023-11-15T00:47:53.723Z,9.93
2023-11-15T00:50:21.701Z,9.96
2023-11-15T00:52:49.636Z,9.92
2023-11-15T00:55:18.169Z,9.90
2023-11-15T00:57:47.967Z,9.88
2023-11-15T01:00:25.029Z,9.84
2023-11-15T01:02:56.516Z,9.77
2023-11-15T01:05:25.477Z,9.75
2023-11-15T01:07:53.614Z,9.91
2023-11-15T01:10:21.692Z,9.77
2023-11-15T01:12:52.330Z,9.84
2023-11-15T01:15:23.118Z,9.85
2023-11-15T01:17:52.401Z,9.81
2023-11-15T01:20:20.570Z,9.78
2023-11-15T01:22:48.732Z,9.86
2023-11-15T01:25:16.803Z,9.71
2023-11-15T01:27:44.769Z,9.83
2023-11-15T01:30:15.433Z,9.84
2023-11-15T01:32:43.523Z,9.83
2023-11-15T01:35:12.345Z,9.80
2023-11-15T01:37:40.295Z,9.90
2023-11-15T01:40:11.221Z,9.88
2023-11-15T01:42:40.410Z,9.89
2023-11-15T01:45:10.759Z,9.91
2023-11-15T01:47:41.448Z,9.92
2023-11-15T01:50:14.196Z,9.90
2023-11-15T01:52:44.876Z,9.85
2023-11-15T01:55:17.453Z,9.83
2023-11-15T01:57:46.125Z,9.84
2023-11-15T02:00:16.468Z,9.84
2023-11-15T02:02:46.157Z,9.87
2023-11-15T02:05:14.305Z,9.86
2023-11-15T02:07:44.810Z,9.87
2023-11-15T02:10:13.837Z,9.95
2023-11-15T02:12:41.944Z,9.90
2023-11-15T02:15:11.251Z,9.88
2023-11-15T02:17:40.116Z,9.91
2023-11-15T02:20:11.580Z,9.94
2023-11-15T02:22:48.421Z,9.86
2023-11-15T02:25:20.517Z,9.80
2023-11-15T02:27:48.483Z,9.85
2023-11-15T02:30:16.725Z,9.83
2023-11-15T02:32:44.995Z,9.82
2023-11-15T02:35:13.203Z,9.82
2023-11-15T02:37:41.228Z,9.81
2023-11-15T02:40:11.854Z,9.81
2023-11-15T02:42:41.691Z,9.80
2023-11-15T02:45:11.220Z,9.80
2023-11-15T02:47:39.564Z,9.83
2023-11-15T02:50:09.431Z,9.80
2023-11-15T02:52:38.016Z,9.81
2023-11-15T02:55:06.979Z,9.84
2023-11-15T02:57:34.985Z,9.77
2023-11-15T03:00:07.182Z,9.77
2023-11-15T03:02:35.421Z,9.81
2023-11-15T03:05:04.137Z,9.79
2023-11-15T03:07:32.334Z,9.73
2023-11-15T03:10:00.947Z,9.75
2023-11-15T03:12:28.960Z,9.70
2023-11-15T03:14:57.199Z,9.69
2023-11-15T03:17:26.887Z,9.64
2023-11-15T03:19:56.041Z,9.60
2023-11-15T03:22:24.205Z,9.63
2023-11-15T03:24:52.187Z,9.62
2023-11-15T03:27:20.681Z,9.50
2023-11-15T03:29:48.925Z,9.53
2023-11-15T03:32:17.122Z,9.50
2023-11-15T03:34:47.396Z,9.50
2023-11-15T03:37:15.782Z,9.42
2023-11-15T03:39:43.779Z,9.33
2023-11-15T03:42:13.456Z,9.26
2023-11-15T03:44:41.692Z,9.20
2023-11-15T03:47:09.730Z,9.15
2023-11-15T03:49:37.887Z,9.14
2023-11-15T03:52:08.942Z,9.05
2023-11-15T03:54:37.454Z,9.03
2023-11-15T03:57:08.948Z,9.00
2023-11-15T03:59:37.093Z,8.94
2023-11-15T04:02:07.627Z,8.91
2023-11-15T04:04:36.041Z,8.85
2023-11-15T04:07:05.248Z,8.80
2023-11-15T04:09:35.399Z,8.83
2023-11-15T04:12:03.666Z,8.83
2023-11-15T04:14:31.950Z,8.74
2023-11-15T04:16:59.939Z,8.69
2023-11-15T04:19:28.247Z,8.57
2023-11-15T04:22:08.159Z,8.53
2023-11-15T04:24:41.774Z,8.58
2023-11-15T04:27:09.885Z,8.44
2023-11-15T04:29:39.358Z,8.36
2023-11-15T04:32:08.122Z,8.31
2023-11-15T04:34:36.212Z,8.31
2023-11-15T04:37:05.033Z,8.31
2023-11-15T04:39:33.005Z,8.26
2023-11-15T04:42:03.064Z,8.24
2023-11-15T04:44:31.970Z,8.16
2023-11-15T04:47:00.120Z,8.09
2023-11-15T04:49:28.182Z,7.96
2023-11-15T04:51:56.192Z,7.90
2023-11-15T04:54:24.242Z,7.84
2023-11-15T04:56:52.944Z,7.82
2023-11-15T04:59:22.373Z,7.79
2023-11-15T05:01:50.364Z,7.69
2023-11-15T05:04:18.501Z,7.72
2023-11-15T05:06:47.866Z,7.76
2023-11-15T05:09:15.954Z,7.75
2023-11-15T05:11:43.918Z,7.73
2023-11-15T05:14:11.886Z,7.76
2023-11-15T05:16:41.441Z,7.80
2023-11-15T05:19:09.465Z,7.81
2023-11-15T05:21:38.354Z,7.78
2023-11-15T05:24:08.293Z,7.78
2023-11-15T05:26:36.312Z,7.77
2023-11-15T05:29:04.376Z,7.77
2023-11-15T05:31:32.404Z,7.71
2023-11-15T05:34:04.135Z,7.67
2023-11-15T05:36:32.178Z,7.73
2023-11-15T05:39:00.204Z,7.73
2023-11-15T05:41:29.704Z,7.68
2023-11-15T05:43:57.921Z,7.78
2023-11-15T05:46:26.666Z,7.66
2023-11-15T05:48:54.848Z,7.66
2023-11-15T05:51:24.331Z,7.66
2023-11-15T05:53:52.320Z,7.54
2023-11-15T05:56:20.669Z,7.55
2023-11-15T05:58:48.574Z,7.52
2023-11-15T06:01:16.518Z,7.53
2023-11-15T06:03:44.660Z,7.51
2023-11-15T06:06:12.794Z,7.61
2023-11-15T06:08:43.295Z,7.50
2023-11-15T06:11:11.692Z,7.44
2023-11-15T06:13:40.074Z,7.39
2023-11-15T06:16:09.483Z,7.40
2023-11-15T06:18:37.612Z,7.35
2023-11-15T06:21:06.888Z,7.38
2023-11-15T06:23:36.200Z,7.32
2023-11-15T06:26:06.639Z,7.42
2023-11-15T06:28:36.716Z,7.43
2023-11-15T06:31:05.762Z,7.34
2023-11-15T06:33:33.889Z,7.30
2023-11-15T06:36:03.339Z,7.30
2023-11-15T06:38:31.711Z,7.35
2023-11-15T06:41:02.399Z,7.28
2023-11-15T06:43:32.747Z,7.30
2023-11-15T06:46:00.712Z,7.22
2023-11-15T06:48:28.901Z,7.24
2023-11-15T06:50:56.958Z,7.31
2023-11-15T06:53:24.874Z,7.26
2023-11-15T06:55:53.942Z,7.29
2023-11-15T06:58:22.499Z,7.31
2023-11-15T07:00:52.069Z,7.31
2023-11-15T07:03:20.010Z,7.38
2023-11-15T07:05:49.991Z,7.40
2023-11-15T07:08:18.443Z,7.46
2023-11-15T07:10:47.386Z,7.35
2023-11-15T07:13:15.342Z,7.33
2023-11-15T07:15:45.401Z,7.48
2023-11-15T07:18:15.039Z,7.46
2023-11-15T07:20:43.619Z,7.45
2023-11-15T07:23:12.948Z,7.34
2023-11-15T07:25:41.043Z,7.41
2023-11-15T07:28:11.057Z,7.46
2023-11-15T07:30:39.051Z,7.64
2023-11-15T07:33:07.206Z,7.59
2023-11-15T07:35:37.652Z,7.67
2023-11-15T07:38:09.114Z,7.63
2023-11-15T07:40:38.920Z,7.75
2023-11-15T07:43:07.862Z,7.72
2023-11-15T07:45:36.746Z,7.66
2023-11-15T07:48:06.321Z,7.77
2023-11-15T07:50:36.592Z,7.75
2023-11-15T07:53:04.980Z,7.78
2023-11-15T07:55:36.570Z,7.85
2023-11-15T07:58:05.586Z,7.94
2023-11-15T08:00:36.697Z,7.94
2023-11-15T08:03:05.905Z,7.91
2023-11-15T08:05:34.035Z,7.76
2023-11-15T08:08:04.540Z,7.90
2023-11-15T08:10:33.722Z,7.83
2023-11-15T08:13:01.704Z,7.85
2023-11-15T08:15:29.646Z,7.91
2023-11-15T08:17:57.820Z,7.90
2023-11-15T08:20:26.073Z,7.84
2023-11-15T08:22:54.197Z,7.90
2023-11-15T08:25:23.833Z,7.93
2023-11-15T08:27:53.249Z,7.88
2023-11-15T08:30:22.428Z,7.96
2023-11-15T08:32:50.598Z,8.02
2023-11-15T08:35:18.958Z,8.08
2023-11-15T08:37:47.017Z,7.96
2023-11-15T08:40:26.120Z,7.86
2023-11-15T08:42:59.583Z,7.97
2023-11-15T08:45:28.161Z,8.01
2023-11-15T08:47:58.618Z,7.99
2023-11-15T08:50:28.244Z,7.97
2023-11-15T08:52:57.558Z,7.91
2023-11-15T08:55:27.423Z,7.89
2023-11-15T08:57:58.043Z,8.02
2023-11-15T09:00:26.045Z,8.00
2023-11-15T09:02:54.079Z,7.98
2023-11-15T09:05:24.344Z,7.97
2023-11-15T09:07:52.563Z,7.92
2023-11-15T09:10:23.881Z,8.00
2023-11-15T09:12:53.372Z,8.03
2023-11-15T09:15:25.482Z,8.04
2023-11-15T09:17:53.571Z,8.16
2023-11-15T09:20:27.094Z,8.16
2023-11-15T09:22:55.859Z,8.12
2023-11-15T09:25:25.340Z,8.06
2023-11-15T09:27:55.583Z,8.14
2023-11-15T09:30:26.378Z,8.08
2023-11-15T09:32:55.868Z,8.03
2023-11-15T09:35:29.055Z,8.04
2023-11-15T09:37:59.215Z,7.94
2023-11-15T09:40:29.327Z,7.98
2023-11-15T09:43:01.144Z,8.19
2023-11-15T09:45:33.835Z,8.20
2023-11-15T09:48:05.510Z,8.26
2023-11-15T09:50:35.855Z,8.20
2023-11-15T09:53:06.522Z,8.20
2023-11-15T09:55:36.005Z,8.36
2023-11-15T09:58:04.655Z,8.26
2023-11-15T10:00:34.161Z,8.39
2023-11-15T10:03:02.864Z,8.45
2023-11-15T10:05:33.331Z,8.36
2023-11-15T10:08:13.851Z,8.33
2023-11-15T10:10:44.663Z,8.36
2023-11-15T10:13:15.472Z,8.38
2023-11-15T10:15:46.811Z,8.31
2023-11-15T10:18:19.369Z,8.23
2023-11-15T10:20:48.693Z,8.34
2023-11-15T10:23:32.222Z,8.29
2023-11-15T10:26:02.507Z,8.43
2023-11-15T10:28:34.163Z,8.37
2023-11-15T10:31:06.607Z,8.28
2023-11-15T10:33:36.339Z,8.25
2023-11-15T10:36:23.772Z,8.28
2023-11-15T10:38:56.578Z,8.27
2023-11-15T10:41:27.086Z,8.34
2023-11-15T10:43:56.307Z,8.24
2023-11-15T10:46:30.319Z,8.10
2023-11-15T10:49:00.504Z,8.19
2023-11-15T10:51:41.910Z,8.39
2023-11-15T10:54:18.498Z,8.33
2023-11-15T10:56:50.841Z,8.41
2023-11-15T10:59:21.184Z,8.13
2023-11-15T11:01:55.629Z,8.13
2023-11-15T11:04:24.865Z,8.07
2023-11-15T11:07:09.004Z,8.14
2023-11-15T11:09:50.123Z,8.01
2023-11-15T11:12:21.710Z,8.17
2023-11-15T11:15:13.320Z,8.16
2023-11-15T11:17:46.744Z,8.24
2023-11-15T11:20:27.031Z,8.19
2023-11-15T11:23:09.190Z,8.27
2023-11-15T11:25:40.161Z,8.31
2023-11-15T11:28:13.097Z,8.35
2023-11-15T11:30:41.749Z,8.48
2023-11-15T11:33:17.586Z,8.30
2023-11-15T11:35:47.271Z,8.29
2023-11-15T11:38:43.705Z,8.20
2023-11-15T11:41:13.934Z,8.34
2023-11-15T11:43:43.220Z,8.54
2023-11-15T11:46:17.245Z,8.35
2023-11-15T11:48:47.000Z,8.44
2023-11-15T11:51:16.823Z,8.23
2023-11-15T11:53:47.951Z,8.25
2023-11-15T11:56:16.098Z,8.45
2023-11-15T11:58:45.029Z,8.41
2023-11-15T12:01:14.455Z,8.37
2023-11-15T12:03:50.126Z,8.37
2023-11-15T12:06:19.731Z,8.41
2023-11-15T12:08:53.792Z,8.53
2023-11-15T12:11:24.669Z,8.55
2023-11-15T12:13:54.701Z,8.54
2023-11-15T12:16:26.243Z,8.55
2023-11-15T12:19:03.032Z,8.64
2023-11-15T12:21:34.201Z,8.58
2023-11-15T12:24:06.015Z,8.72
2023-11-15T12:26:44.286Z,8.64
2023-11-15T12:29:21.537Z,8.68
2023-11-15T12:31:52.495Z,8.74
2023-11-15T12:34:23.341Z,8.80
2023-11-15T12:36:52.937Z,8.70
2023-11-15T12:39:23.240Z,8.78
2023-11-15T12:41:53.627Z,8.70
2023-11-15T12:44:22.619Z,8.76
2023-11-15T12:46:54.808Z,8.84
2023-11-15T12:49:28.534Z,8.83
2023-11-15T12:51:57.706Z,8.96
2023-11-15T12:54:25.643Z,8.97
2023-11-15T12:57:12.939Z,8.87
2023-11-15T12:59:43.194Z,8.90
2023-11-15T13:02:13.510Z,8.95
2023-11-15T13:04:52.709Z,8.82
2023-11-15T13:07:20.998Z,8.72
2023-11-15T13:09:49.403Z,8.84
2023-11-15T13:12:25.719Z,8.77
2023-11-15T13:14:55.690Z,8.82
2023-11-15T13:17:24.504Z,8.98
2023-11-15T13:19:53.846Z,9.05
2023-11-15T13:22:21.856Z,8.99
2023-11-15T13:24:51.056Z,9.12
2023-11-15T13:27:21.523Z,9.15
2023-11-15T13:29:51.644Z,9.14
2023-11-15T13:32:20.429Z,9.20
2023-11-15T13:34:51.657Z,9.31
2023-11-15T13:37:21.271Z,9.47
2023-11-15T13:39:48.492Z,9.43
2023-11-15T13:42:16.605Z,9.39
2023-11-15T13:44:44.821Z,9.22
2023-11-15T13:47:13.679Z,9.36
2023-11-15T13:49:47.378Z,9.31
2023-11-15T13:52:16.911Z,9.21
2023-11-15T13:54:47.504Z,9.16
2023-11-15T13:57:16.410Z,9.11
2023-11-15T13:59:44.534Z,9.07
2023-11-15T14:02:14.609Z,9.12
2023-11-15T14:04:42.725Z,9.15
2023-11-15T14:07:11.371Z,9.24
2023-11-15T14:09:39.684Z,9.16
2023-11-15T14:12:10.056Z,9.26
2023-11-15T14:14:39.889Z,9.29
2023-11-15T14:17:08.966Z,9.38
2023-11-15T14:19:38.171Z,9.31
2023-11-15T14:22:06.805Z,9.35
2023-11-15T14:24:36.929Z,9.21
2023-11-15T14:27:05.699Z,9.20
2023-11-15T14:29:35.368Z,9.27
2023-11-15T14:32:03.449Z,9.26
2023-11-15T14:34:33.487Z,9.34
2023-11-15T14:37:04.335Z,9.34
2023-11-15T14:39:33.059Z,9.16
2023-11-15T14:42:01.307Z,9.12
2023-11-15T14:44:29.817Z,9.18
2023-11-15T14:47:00.073Z,9.19
2023-11-15T14:49:28.185Z,9.12
2023-11-15T14:52:08.546Z,9.14
2023-11-15T14:54:41.644Z,9.19
2023-11-15T14:57:10.353Z,9.16
2023-11-15T14:59:41.668Z,9.14
2023-11-15T15:02:11.620Z,9.21
2023-11-15T15:04:43.497Z,9.16
2023-11-15T15:07:12.900Z,9.07
2023-11-15T15:09:41.156Z,9.14
2023-11-15T15:12:10.297Z,9.14
2023-11-15T15:14:39.332Z,9.08
2023-11-15T15:17:14.627Z,9.18
2023-11-15T15:19:49.981Z,9.09
2023-11-15T15:22:18.013Z,9.14
2023-11-15T15:24:46.223Z,9.10
2023-11-15T15:27:14.276Z,9.13
2023-11-15T15:29:43.647Z,9.20
2023-11-15T15:32:13.953Z,9.11
2023-11-15T15:34:42.758Z,8.97
2023-11-15T15:37:12.261Z,8.94
2023-11-15T15:39:40.240Z,8.97
2023-11-15T15:42:08.520Z,9.01
2023-11-15T15:44:36.614Z,8.97
2023-11-15T15:47:05.543Z,8.93
2023-11-15T15:49:34.050Z,8.93
2023-11-15T15:52:02.044Z,8.85
2023-11-15T15:54:31.467Z,8.94
2023-11-15T15:56:59.495Z,8.96
2023-11-15T15:59:27.627Z,8.93
2023-11-15T16:01:57.505Z,8.87
2023-11-15T16:04:25.668Z,8.65
2023-11-15T16:06:53.801Z,8.60
2023-11-15T16:09:23.084Z,8.51
2023-11-15T16:11:52.619Z,8.45
2023-11-15T16:14:20.586Z,8.43
2023-11-15T16:16:49.485Z,8.34
2023-11-15T16:19:17.679Z,8.24
2023-11-15T16:21:45.964Z,8.23
2023-11-15T16:24:14.098Z,8.13
2023-11-15T16:26:42.636Z,8.07
2023-11-15T16:29:16.329Z,8.01
2023-11-15T16:31:44.497Z,7.89
2023-11-15T16:34:13.518Z,7.80
2023-11-15T16:36:41.916Z,7.75
2023-11-15T16:39:12.608Z,7.75
2023-11-15T16:41:50.374Z,7.74
2023-11-15T16:44:20.920Z,7.81
2023-11-15T16:46:49.440Z,7.80
2023-11-15T16:49:17.611Z,7.71
2023-11-15T16:51:46.427Z,7.62
2023-11-15T16:54:16.131Z,7.54
2023-11-15T16:56:45.294Z,7.50
2023-11-15T16:59:14.139Z,7.48
2023-11-15T17:01:43.904Z,7.39
2023-11-15T17:04:12.486Z,7.34
2023-11-15T17:06:41.599Z,7.29
2023-11-15T17:09:10.042Z,7.22
2023-11-15T17:11:38.001Z,7.18
2023-11-15T17:14:06.560Z,7.13
2023-11-15T17:16:35.102Z,7.11
2023-11-15T17:19:05.013Z,7.07
2023-11-15T17:21:33.132Z,7.00
2023-11-15T17:24:02.258Z,6.98
2023-11-15T17:26:32.164Z,6.99
2023-11-15T17:29:00.667Z,7.04
2023-11-15T17:31:31.173Z,7.01
2023-11-15T17:33:59.293Z,7.03
2023-11-15T17:36:29.919Z,6.98
2023-11-15T17:38:59.794Z,6.99
2023-11-15T17:41:27.591Z,7.00
2023-11-15T17:43:55.826Z,6.97
2023-11-15T17:46:25.321Z,6.97
2023-11-15T17:48:53.279Z,6.95
2023-11-15T17:51:22.948Z,6.91
2023-11-15T17:53:54.307Z,6.92
2023-11-15T17:56:22.354Z,6.96
2023-11-15T17:58:52.173Z,6.98
2023-11-15T18:01:21.616Z,6.93
2023-11-15T18:03:49.776Z,6.95
2023-11-15T18:06:24.385Z,6.91
2023-11-15T18:08:53.861Z,6.88
2023-11-15T18:11:21.905Z,6.90
2023-11-15T18:13:50.192Z,6.95
2023-11-15T18:16:18.280Z,6.84
2023-11-15T18:18:46.270Z,6.78
2023-11-15T18:21:14.321Z,6.71
2023-11-15T18:23:42.896Z,6.74
2023-11-15T18:26:12.234Z,6.72
2023-11-15T18:28:42.343Z,6.76
2023-11-15T18:31:11.949Z,6.73
2023-11-15T18:33:40.324Z,6.68
2023-11-15T18:36:11.884Z,6.72
2023-11-15T18:38:40.449Z,6.68
2023-11-15T18:41:08.558Z,6.68
2023-11-15T18:43:38.490Z,6.74
2023-11-15T18:46:07.514Z,6.71
2023-11-15T18:48:35.598Z,6.65
2023-11-15T18:51:03.629Z,6.65
2023-11-15T18:53:31.601Z,6.69
2023-11-15T18:56:01.192Z,6.68
2023-11-15T18:58:29.168Z,6.71
2023-11-15T19:00:59.375Z,6.78
2023-11-15T19:03:27.913Z,6.77
2023-11-15T19:05:57.094Z,6.73
2023-11-15T19:08:25.341Z,6.73
2023-11-15T19:10:55.606Z,6.85
2023-11-15T19:13:26.145Z,6.82
2023-11-15T19:15:54.473Z,6.82
2023-11-15T19:18:23.974Z,6.82
2023-11-15T19:20:52.078Z,6.78
2023-11-15T19:23:21.703Z,6.92
2023-11-15T19:25:49.498Z,6.93
2023-11-15T19:28:17.424Z,6.98
2023-11-15T19:30:46.195Z,7.04
2023-11-15T19:33:14.319Z,7.13
2023-11-15T19:35:43.732Z,7.24
2023-11-15T19:38:13.583Z,7.29
2023-11-15T19:40:41.593Z,7.27
2023-11-15T19:43:10.318Z,7.32
2023-11-15T19:45:39.214Z,7.32
2023-11-15T19:48:12.412Z,7.25
2023-11-15T19:50:41.248Z,7.17
2023-11-15T19:53:12.418Z,7.17
2023-11-15T19:55:40.535Z,7.19
2023-11-15T19:58:08.749Z,7.20
2023-11-15T20:00:37.258Z,7.26
2023-11-15T20:03:10.889Z,7.22
2023-11-15T20:05:41.181Z,7.20
2023-11-15T20:08:10.783Z,7.10
2023-11-15T20:10:39.119Z,7.01
2023-11-15T20:13:08.432Z,7.04
2023-11-15T20:15:38.256Z,6.97
2023-11-15T20:18:07.077Z,6.97
2023-11-15T20:20:35.415Z,6.98
2023-11-15T20:23:03.301Z,6.96
2023-11-15T20:25:32.597Z,6.91
2023-11-15T20:28:01.598Z,6.84
2023-11-15T20:30:32.765Z,6.93
2023-11-15T20:33:01.250Z,6.99
2023-11-15T20:35:31.667Z,7.13
2023-11-15T20:38:00.021Z,7.18
2023-11-15T20:40:32.336Z,7.40
2023-11-15T20:43:02.040Z,7.60
2023-11-15T20:45:30.127Z,7.61
2023-11-15T20:48:03.316Z,7.61
2023-11-15T20:50:31.673Z,7.79
2023-11-15T20:53:01.337Z,7.79
2023-11-15T20:55:30.612Z,7.65
2023-11-15T20:58:03.585Z,7.66
2023-11-15T21:00:35.193Z,7.42
2023-11-15T21:03:05.883Z,7.54
2023-11-15T21:05:34.132Z,7.42
2023-11-15T21:08:02.074Z,7.41
2023-11-15T21:10:30.113Z,7.73
2023-11-15T21:12:58.646Z,7.78
2023-11-15T21:15:27.554Z,7.75
2023-11-15T21:17:57.337Z,7.64
2023-11-15T21:20:25.550Z,7.60
2023-11-15T21:22:53.533Z,7.76
2023-11-15T21:25:21.616Z,7.92
2023-11-15T21:27:49.558Z,8.05
2023-11-15T21:30:19.162Z,7.96
2023-11-15T21:32:47.348Z,8.04
2023-11-15T21:35:16.701Z,7.79
2023-11-15T21:37:46.640Z,7.60
2023-11-15T21:40:19.081Z,7.48
2023-11-15T21:42:49.203Z,7.49
2023-11-15T21:45:20.813Z,7.42
2023-11-15T21:47:50.135Z,7.41
2023-11-15T21:50:21.854Z,7.21
2023-11-15T21:52:51.523Z,7.23
2023-11-15T21:55:19.532Z,7.04
2023-11-15T21:57:47.518Z,6.99
2023-11-15T22:00:17.289Z,7.07
2023-11-15T22:02:45.715Z,6.97
2023-11-15T22:05:13.853Z,6.99
2023-11-15T22:07:43.658Z,7.12
2023-11-15T22:10:13.801Z,7.10
2023-11-15T22:12:42.211Z,7.20
2023-11-15T22:15:11.407Z,7.25
2023-11-15T22:17:41.314Z,7.27
2023-11-15T22:20:11.701Z,7.31
2023-11-15T22:22:40.002Z,7.35
2023-11-15T22:25:10.980Z,7.32
2023-11-15T22:27:38.984Z,7.32
2023-11-15T22:30:08.908Z,7.33
2023-11-15T22:32:37.013Z,7.36
2023-11-15T22:35:05.688Z,7.41
2023-11-15T22:37:34.308Z,7.44
2023-11-15T22:40:02.276Z,7.44
2023-11-15T22:42:31.643Z,7.43
2023-11-15T22:44:59.669Z,7.33
2023-11-15T22:47:27.734Z,7.34
2023-11-15T22:49:55.702Z,7.42
2023-11-15T22:52:23.702Z,7.36
2023-11-15T22:54:51.835Z,7.39
2023-11-15T22:57:19.876Z,7.39
2023-11-15T22:59:52.237Z,7.39
2023-11-15T23:02:21.102Z,7.37
2023-11-15T23:04:49.346Z,7.37
2023-11-15T23:07:21.483Z,7.31
2023-11-15T23:09:49.843Z,7.30
2023-11-15T23:12:18.139Z,7.29
2023-11-15T23:14:46.516Z,7.37
2023-11-15T23:17:16.697Z,7.38
2023-11-15T23:19:45.924Z,7.36
2023-11-15T23:22:13.886Z,7.42
2023-11-15T23:24:42.434Z,7.38
2023-11-15T23:27:11.010Z,7.38
2023-11-15T23:29:39.053Z,7.38
2023-11-15T23:32:08.444Z,7.34
2023-11-15T23:34:37.762Z,7.27
2023-11-15T23:37:06.206Z,7.18
2023-11-15T23:39:34.509Z,7.12
2023-11-15T23:42:02.593Z,7.09
2023-11-15T23:44:31.560Z,7.07
2023-11-15T23:47:00.149Z,7.14
2023-11-15T23:49:28.204Z,7.16
2023-11-15T23:51:57.602Z,7.23
2023-11-15T23:54:25.522Z,7.23
2023-11-15T23:56:56.162Z,7.22
2023-11-15T23:59:24.091Z,7.22
